createdAt,value
2023-01-21T00:00:07.165Z,-0.90
2023-01-21T00:02:34.884Z,-0.90
2023-01-21T00:05:01.922Z,-0.90
2023-01-21T00:07:28.916Z,-0.90
2023-01-21T00:09:55.878Z,-0.90
2023-01-21T00:12:22.900Z,-0.90
2023-01-21T00:14:49.898Z,-0.90
2023-01-21T00:17:16.872Z,-0.90
2023-01-21T00:19:43.843Z,-1.00
2023-01-21T00:22:10.860Z,-1.00
2023-01-21T00:24:37.929Z,-1.00
2023-01-21T00:27:04.899Z,-1.00
2023-01-21T00:29:31.889Z,-1.00
2023-01-21T00:31:58.910Z,-1.00
2023-01-21T00:34:25.965Z,-1.00
2023-01-21T00:36:54.501Z,-1.00
2023-01-21T00:39:23.291Z,-1.00
2023-01-21T00:41:50.249Z,-1.00
2023-01-21T00:44:17.674Z,-1.00
2023-01-21T00:46:44.655Z,-1.00
2023-01-21T00:49:11.676Z,-1.00
2023-01-21T00:51:38.640Z,-1.00
2023-01-21T00:54:05.609Z,-1.00
2023-01-21T00:56:32.600Z,-1.10
2023-01-21T00:58:59.682Z,-1.00
2023-01-21T01:01:27.915Z,-1.00
2023-01-21T01:03:55.109Z,-1.10
2023-01-21T01:06:22.893Z,-1.10
2023-01-21T01:08:49.959Z,-1.10
2023-01-21T01:11:17.078Z,-1.10
2023-01-21T01:13:44.085Z,-1.10
2023-01-21T01:16:11.470Z,-1.10
2023-01-21T01:18:38.605Z,-1.10
2023-01-21T01:21:05.750Z,-1.10
2023-01-21T01:23:32.752Z,-1.10
2023-01-21T01:26:00.692Z,-1.10
2023-01-21T01:28:27.866Z,-1.10
2023-01-21T01:30:55.049Z,-1.10
2023-01-21T01:33:22.253Z,-1.10
2023-01-21T01:35:49.381Z,-1.10
2023-01-21T01:38:16.807Z,-1.10
2023-01-21T01:40:43.881Z,-1.10
2023-01-21T01:43:17.987Z,-1.10
2023-01-21T01:45:44.987Z,-1.10
2023-01-21T01:48:13.790Z,-1.10
2023-01-21T01:50:40.766Z,-1.10
2023-01-21T01:53:08.215Z,-1.20
2023-01-21T01:55:35.522Z,-1.10
2023-01-21T01:58:02.989Z,-1.10
2023-01-21T02:00:29.970Z,-1.20
2023-01-21T02:03:15.881Z,-1.10
2023-01-21T02:05:42.869Z,-1.20
2023-01-21T02:08:09.893Z,-1.20
2023-01-21T02:10:36.863Z,-1.20
2023-01-21T02:13:03.846Z,-1.20
2023-01-21T02:15:34.203Z,-1.20
2023-01-21T02:18:05.179Z,-1.30
2023-01-21T02:20:32.269Z,-1.20
2023-01-21T02:23:02.906Z,-1.30
2023-01-21T02:25:29.856Z,-1.30
2023-01-21T02:27:59.942Z,-1.30
2023-01-21T02:30:29.747Z,-1.30
2023-01-21T02:33:35.361Z,-1.30
2023-01-21T02:36:02.298Z,-1.30
2023-01-21T02:38:30.066Z,-1.40
2023-01-21T02:41:03.128Z,-1.30
2023-01-21T02:43:40.255Z,-1.40
2023-01-21T02:46:15.622Z,-1.40
2023-01-21T02:48:45.170Z,-1.40
2023-01-21T02:51:12.531Z,-1.40
2023-01-21T02:53:39.511Z,-1.40
2023-01-21T02:56:08.268Z,-1.40
2023-01-21T02:58:36.725Z,-1.40
2023-01-21T03:01:08.334Z,-1.40
2023-01-21T03:03:41.073Z,-1.40
2023-01-21T03:06:26.778Z,-1.40
2023-01-21T03:09:02.136Z,-1.40
2023-01-21T03:11:29.220Z,-1.40
2023-01-21T03:14:19.213Z,-1.40
2023-01-21T03:17:09.474Z,-1.40
2023-01-21T03:20:02.888Z,-1.30
2023-01-21T03:22:31.121Z,-1.40
2023-01-21T03:24:58.135Z,-1.30
2023-01-21T03:27:26.839Z,-1.30
2023-01-21T03:29:57.781Z,-1.30
2023-01-21T03:32:24.782Z,-1.40
2023-01-21T03:34:52.222Z,-1.40
2023-01-21T03:37:25.140Z,-1.30
2023-01-21T03:39:58.795Z,-1.40
2023-01-21T03:42:26.288Z,-1.40
2023-01-21T03:44:53.546Z,-1.40
2023-01-21T03:47:24.276Z,-1.40
2023-01-21T03:50:01.588Z,-1.40
2023-01-21T03:52:28.635Z,-1.40
2023-01-21T03:54:55.733Z,-1.40
2023-01-21T03:57:22.722Z,-1.40
2023-01-21T03:59:49.847Z,-1.40
2023-01-21T04:02:20.431Z,-1.40
2023-01-21T04:04:47.549Z,-1.40
2023-01-21T04:07:14.879Z,-1.40
2023-01-21T04:09:41.862Z,-1.50
2023-01-21T04:12:08.853Z,-1.40
2023-01-21T04:14:35.943Z,-1.40
2023-01-21T04:17:03.043Z,-1.40
2023-01-21T04:19:30.025Z,-1.40
2023-01-21T04:21:57.002Z,-1.40
2023-01-21T04:24:24.057Z,-1.40
2023-01-21T04:26:51.231Z,-1.40
2023-01-21T04:29:18.720Z,-1.40
2023-01-21T04:31:45.833Z,-1.50
2023-01-21T04:34:12.942Z,-1.40
2023-01-21T04:36:39.984Z,-1.50
2023-01-21T04:39:06.968Z,-1.50
2023-01-21T04:41:33.966Z,-1.50
2023-01-21T04:44:00.927Z,-1.50
2023-01-21T04:46:27.941Z,-1.50
2023-01-21T04:48:54.911Z,-1.50
2023-01-21T04:51:21.899Z,-1.50
2023-01-21T04:53:48.950Z,-1.50
2023-01-21T04:56:16.119Z,-1.50
2023-01-21T04:58:43.121Z,-1.50
2023-01-21T05:01:10.150Z,-1.50
2023-01-21T05:03:37.195Z,-1.50
2023-01-21T05:06:04.241Z,-1.50
2023-01-21T05:08:31.217Z,-1.50
2023-01-21T05:10:58.178Z,-1.50
2023-01-21T05:13:25.160Z,-1.50
2023-01-21T05:15:52.767Z,-1.50
2023-01-21T05:18:19.762Z,-1.50
2023-01-21T05:20:46.784Z,-1.60
2023-01-21T05:23:13.744Z,-1.60
2023-01-21T05:25:40.746Z,-1.60
2023-01-21T05:28:07.851Z,-1.60
2023-01-21T05:30:34.850Z,-1.60
2023-01-21T05:33:01.947Z,-1.60
2023-01-21T05:35:28.929Z,-1.70
2023-01-21T05:37:56.137Z,-1.70
2023-01-21T05:40:23.294Z,-1.70
2023-01-21T05:42:50.259Z,-1.70
2023-01-21T05:45:17.220Z,-1.80
2023-01-21T05:47:44.181Z,-1.80
2023-01-21T05:50:11.392Z,-1.80
2023-01-21T05:52:38.447Z,-1.80
2023-01-21T05:55:07.413Z,-1.80
2023-01-21T05:57:34.403Z,-1.80
2023-01-21T06:00:01.366Z,-1.90
2023-01-21T06:02:28.401Z,-1.90
2023-01-21T06:04:55.406Z,-1.90
2023-01-21T06:07:22.393Z,-1.90
2023-01-21T06:09:49.365Z,-1.80
2023-01-21T06:12:16.330Z,-1.90
2023-01-21T06:14:43.300Z,-1.80
2023-01-21T06:17:10.325Z,-1.80
2023-01-21T06:19:37.344Z,-1.90
2023-01-21T06:22:04.323Z,-1.90
2023-01-21T06:24:31.291Z,-1.90
2023-01-21T06:26:58.255Z,-1.90
2023-01-21T06:29:25.248Z,-1.90
2023-01-21T06:31:52.344Z,-1.90
2023-01-21T06:34:19.471Z,-1.90
2023-01-21T06:36:46.499Z,-1.90
2023-01-21T06:39:13.498Z,-1.90
2023-01-21T06:41:40.539Z,-2.00
2023-01-21T06:44:07.681Z,-2.00
2023-01-21T06:46:34.721Z,-2.00
2023-01-21T06:49:01.836Z,-2.00
2023-01-21T06:51:28.844Z,-2.10
2023-01-21T06:53:55.868Z,-2.00
2023-01-21T06:56:22.891Z,-2.00
2023-01-21T06:58:49.909Z,-2.00
2023-01-21T07:01:16.915Z,-2.00
2023-01-21T07:03:44.272Z,-2.00
2023-01-21T07:06:11.440Z,-2.00
2023-01-21T07:08:38.447Z,-2.10
2023-01-21T07:11:05.473Z,-2.10
2023-01-21T07:13:32.528Z,-2.00
2023-01-21T07:16:00.723Z,-2.10
2023-01-21T07:18:27.799Z,-2.10
2023-01-21T07:20:54.788Z,-2.10
2023-01-21T07:23:21.767Z,-2.10
2023-01-21T07:25:48.763Z,-2.10
2023-01-21T07:28:15.823Z,-2.10
2023-01-21T07:30:42.829Z,-2.10
2023-01-21T07:33:09.936Z,-2.10
2023-01-21T07:35:36.893Z,-2.10
2023-01-21T07:38:03.880Z,-2.10
2023-01-21T07:40:30.880Z,-2.10
2023-01-21T07:42:57.969Z,-2.10
2023-01-21T07:45:24.952Z,-2.10
2023-01-21T07:47:51.991Z,-2.10
2023-01-21T07:50:18.973Z,-2.00
2023-01-21T07:52:45.982Z,-2.10
2023-01-21T07:55:12.965Z,-2.00
2023-01-21T07:57:39.954Z,-2.10
2023-01-21T08:00:07.205Z,-2.10
2023-01-21T08:02:38.766Z,-2.10
2023-01-21T08:05:06.491Z,-2.10
2023-01-21T08:07:33.489Z,-2.10
2023-01-21T08:10:00.466Z,-2.10
2023-01-21T08:12:27.514Z,-2.10
2023-01-21T08:14:54.517Z,-2.10
2023-01-21T08:17:21.620Z,-2.10
2023-01-21T08:19:48.595Z,-2.10
2023-01-21T08:22:15.569Z,-2.00
2023-01-21T08:24:42.591Z,-2.00
2023-01-21T08:27:09.559Z,-2.10
2023-01-21T08:29:36.565Z,-2.10
2023-01-21T08:32:03.547Z,-2.10
2023-01-21T08:34:30.606Z,-2.10
2023-01-21T08:36:57.577Z,-2.10
2023-01-21T08:39:24.572Z,-2.10
2023-01-21T08:41:51.606Z,-2.10
2023-01-21T08:44:18.596Z,-2.10
2023-01-21T08:46:45.562Z,-2.10
2023-01-21T08:49:12.539Z,-2.10
2023-01-21T08:51:39.871Z,-2.10
2023-01-21T08:54:07.294Z,-2.00
2023-01-21T08:56:34.370Z,-2.10
2023-01-21T08:59:02.696Z,-2.00
2023-01-21T09:01:29.742Z,-2.00
2023-01-21T09:03:57.096Z,-2.00
2023-01-21T09:06:24.657Z,-1.90
2023-01-21T09:08:51.704Z,-1.90
2023-01-21T09:11:18.734Z,-1.90
2023-01-21T09:13:45.787Z,-1.90
2023-01-21T09:16:14.246Z,-1.90
2023-01-21T09:18:41.391Z,-1.90
2023-01-21T09:21:08.540Z,-1.90
2023-01-21T09:23:36.282Z,-1.80
2023-01-21T09:26:04.447Z,-1.80
2023-01-21T09:28:32.262Z,-1.70
2023-01-21T09:30:59.853Z,-1.70
2023-01-21T09:33:27.173Z,-1.70
2023-01-21T09:35:54.759Z,-1.60
2023-01-21T09:38:21.861Z,-1.70
2023-01-21T09:40:49.209Z,-1.60
2023-01-21T09:43:21.607Z,-1.50
2023-01-21T09:45:48.601Z,-1.50
2023-01-21T09:48:16.604Z,-1.40
2023-01-21T09:50:44.174Z,-1.40
2023-01-21T09:53:18.194Z,-1.30
2023-01-21T09:55:47.542Z,-1.30
2023-01-21T09:58:16.760Z,-1.30
2023-01-21T10:00:49.319Z,-1.30
2023-01-21T10:03:22.589Z,-1.30
2023-01-21T10:05:52.563Z,-1.30
2023-01-21T10:08:25.660Z,-1.30
2023-01-21T10:10:55.118Z,-1.30
2023-01-21T10:13:26.067Z,-1.30
2023-01-21T10:16:13.375Z,-1.30
2023-01-21T10:18:40.594Z,-1.30
2023-01-21T10:21:16.439Z,-1.40
2023-01-21T10:23:48.021Z,-1.40
2023-01-21T10:26:15.626Z,-1.40
2023-01-21T10:28:51.951Z,-1.40
2023-01-21T10:31:25.875Z,-1.40
2023-01-21T10:33:52.980Z,-1.40
2023-01-21T10:36:19.988Z,-1.40
2023-01-21T10:38:59.559Z,-1.30
2023-01-21T10:41:32.549Z,-1.30
2023-01-21T10:44:05.656Z,-1.40
2023-01-21T10:46:51.112Z,-1.40
2023-01-21T10:49:21.108Z,-1.40
2023-01-21T10:51:52.438Z,-1.40
2023-01-21T10:54:26.581Z,-1.30
2023-01-21T10:57:19.967Z,-1.30
2023-01-21T10:59:46.976Z,-1.30
2023-01-21T11:02:13.974Z,-1.20
2023-01-21T11:04:41.122Z,-1.20
2023-01-21T11:07:09.057Z,-1.20
2023-01-21T11:09:37.429Z,-1.20
2023-01-21T11:12:04.764Z,-1.10
2023-01-21T11:14:31.756Z,-1.10
2023-01-21T11:16:58.814Z,-1.10
2023-01-21T11:19:26.672Z,-1.10
2023-01-21T11:22:04.161Z,-1.10
2023-01-21T11:24:32.562Z,-1.00
2023-01-21T11:27:00.362Z,-1.00
2023-01-21T11:29:27.912Z,-0.90
2023-01-21T11:32:05.533Z,-1.00
2023-01-21T11:34:32.628Z,-0.90
2023-01-21T11:36:59.633Z,-0.90
2023-01-21T11:39:27.365Z,-0.90
2023-01-21T11:41:54.604Z,-0.90
2023-01-21T11:44:21.780Z,-0.80
2023-01-21T11:46:48.783Z,-0.80
2023-01-21T11:49:15.761Z,-0.80
2023-01-21T11:51:42.798Z,-0.80
2023-01-21T11:54:22.879Z,-0.80
2023-01-21T11:56:59.960Z,-0.90
2023-01-21T11:59:29.598Z,-0.80
2023-01-21T12:01:58.106Z,-0.80
2023-01-21T12:04:25.397Z,-0.70
2023-01-21T12:06:55.643Z,-0.70
2023-01-21T12:09:22.689Z,-0.70
2023-01-21T12:12:02.168Z,-0.80
2023-01-21T12:14:31.043Z,-0.80
2023-01-21T12:17:21.816Z,-0.80
2023-01-21T12:19:48.854Z,-0.80
2023-01-21T12:22:34.491Z,-0.80
2023-01-21T12:25:04.672Z,-0.80
2023-01-21T12:27:39.509Z,-0.80
2023-01-21T12:30:14.969Z,-0.70
2023-01-21T12:32:43.011Z,-0.70
2023-01-21T12:35:13.929Z,-0.70
2023-01-21T12:37:46.665Z,-0.70
2023-01-21T12:40:15.254Z,-0.70
2023-01-21T12:42:43.967Z,-0.70
2023-01-21T12:45:12.188Z,-0.70
2023-01-21T12:47:44.377Z,-0.70
2023-01-21T12:50:29.180Z,-0.70
2023-01-21T12:53:04.421Z,-0.60
2023-01-21T12:55:35.458Z,-0.60
2023-01-21T12:58:04.767Z,-0.60
2023-01-21T13:00:32.665Z,-0.60
2023-01-21T13:02:59.687Z,-0.50
2023-01-21T13:05:35.302Z,-0.60
2023-01-21T13:08:14.596Z,-0.50
2023-01-21T13:10:42.153Z,-0.50
2023-01-21T13:13:14.363Z,-0.50
2023-01-21T13:15:41.360Z,-0.50
2023-01-21T13:18:10.755Z,-0.50
2023-01-21T13:20:38.672Z,-0.50
2023-01-21T13:23:05.677Z,-0.50
2023-01-21T13:25:32.751Z,-0.50
2023-01-21T13:28:13.828Z,-0.50
2023-01-21T13:30:52.515Z,-0.50
2023-01-21T13:33:21.558Z,-0.50
2023-01-21T13:36:00.956Z,-0.60
2023-01-21T13:38:47.033Z,-0.60
2023-01-21T13:41:26.716Z,-0.60
2023-01-21T13:44:03.151Z,-0.60
2023-01-21T13:47:08.914Z,-0.50
2023-01-21T13:49:57.892Z,-0.60
2023-01-21T13:52:28.564Z,-0.50
2023-01-21T13:55:04.746Z,-0.50
2023-01-21T13:57:36.826Z,-0.60
2023-01-21T14:00:09.953Z,-0.60
2023-01-21T14:02:42.547Z,-0.60
2023-01-21T14:05:12.430Z,-0.70
2023-01-21T14:07:41.241Z,-0.70
2023-01-21T14:10:23.517Z,-0.70
2023-01-21T14:13:09.379Z,-0.70
2023-01-21T14:15:39.346Z,-0.70
2023-01-21T14:18:09.526Z,-0.70
2023-01-21T14:20:55.565Z,-0.70
2023-01-21T14:23:35.168Z,-0.70
2023-01-21T14:26:08.294Z,-0.70
2023-01-21T14:28:47.778Z,-0.70
2023-01-21T14:31:16.081Z,-0.80
2023-01-21T14:34:15.531Z,-0.80
2023-01-21T14:36:48.717Z,-0.80
2023-01-21T14:39:15.667Z,-0.80
2023-01-21T14:42:01.974Z,-0.70
2023-01-21T14:44:39.577Z,-0.70
2023-01-21T14:47:24.993Z,-0.80
2023-01-21T14:49:52.803Z,-0.80
2023-01-21T14:52:30.224Z,-0.80
2023-01-21T14:54:57.281Z,-0.80
2023-01-21T14:57:25.621Z,-0.80
2023-01-21T14:59:53.276Z,-0.80
2023-01-21T15:02:26.342Z,-0.80
2023-01-21T15:04:54.829Z,-0.80
2023-01-21T15:07:22.563Z,-0.80
2023-01-21T15:09:53.675Z,-0.80
2023-01-21T15:12:21.977Z,-0.80
2023-01-21T15:14:49.102Z,-0.80
2023-01-21T15:17:34.934Z,-0.80
2023-01-21T15:20:19.499Z,-0.90
2023-01-21T15:22:48.791Z,-0.90
2023-01-21T15:25:19.902Z,-0.90
2023-01-21T15:28:13.384Z,-0.90
2023-01-21T15:30:53.999Z,-0.90
2023-01-21T15:33:25.035Z,-0.90
2023-01-21T15:35:52.154Z,-0.90
2023-01-21T15:38:20.370Z,-0.90
2023-01-21T15:40:54.475Z,-1.00
2023-01-21T15:43:30.741Z,-1.00
2023-01-21T15:45:57.718Z,-1.00
2023-01-21T15:48:40.729Z,-1.00
2023-01-21T15:51:19.599Z,-1.00
2023-01-21T15:53:53.994Z,-1.00
2023-01-21T15:56:20.999Z,-1.00
2023-01-21T15:58:51.064Z,-1.00
2023-01-21T16:01:50.591Z,-1.00
2023-01-21T16:04:25.405Z,-1.00
2023-01-21T16:06:55.478Z,-1.00
2023-01-21T16:09:44.913Z,-1.00
2023-01-21T16:12:11.911Z,-1.00
2023-01-21T16:14:57.670Z,-1.10
2023-01-21T16:17:30.726Z,-1.00
2023-01-21T16:19:58.124Z,-1.00
2023-01-21T16:22:25.768Z,-1.10
2023-01-21T16:24:54.605Z,-1.10
2023-01-21T16:27:25.805Z,-1.10
2023-01-21T16:29:59.642Z,-1.10
2023-01-21T16:32:26.987Z,-1.10
2023-01-21T16:34:54.035Z,-1.10
2023-01-21T16:37:22.430Z,-1.10
2023-01-21T16:39:49.431Z,-1.10
2023-01-21T16:42:28.574Z,-1.10
2023-01-21T16:44:55.571Z,-1.20
2023-01-21T16:47:23.518Z,-1.20
2023-01-21T16:49:50.494Z,-1.20
2023-01-21T16:52:20.509Z,-1.10
2023-01-21T16:54:47.885Z,-1.20
2023-01-21T16:57:14.868Z,-1.20
2023-01-21T16:59:42.552Z,-1.20
2023-01-21T17:02:20.284Z,-1.10
2023-01-21T17:04:47.305Z,-1.20
2023-01-21T17:07:14.631Z,-1.10
2023-01-21T17:09:41.649Z,-1.10
2023-01-21T17:12:09.586Z,-1.10
2023-01-21T17:14:36.611Z,-1.20
2023-01-21T17:17:04.852Z,-1.10
2023-01-21T17:19:38.914Z,-1.20
2023-01-21T17:22:15.157Z,-1.10
2023-01-21T17:24:46.722Z,-1.10
2023-01-21T17:27:15.765Z,-1.20
2023-01-21T17:29:44.582Z,-1.20
2023-01-21T17:32:31.257Z,-1.20
2023-01-21T17:35:20.491Z,-1.20
2023-01-21T17:37:55.018Z,-1.20
2023-01-21T17:40:25.399Z,-1.20
2023-01-21T17:42:52.389Z,-1.20
2023-01-21T17:45:23.275Z,-1.20
2023-01-21T17:48:07.563Z,-1.30
2023-01-21T17:50:35.907Z,-1.30
2023-01-21T17:53:03.694Z,-1.30
2023-01-21T17:55:31.915Z,-1.30
2023-01-21T17:58:04.328Z,-1.30
2023-01-21T18:00:34.470Z,-1.30
2023-01-21T18:03:01.520Z,-1.30
2023-01-21T18:05:28.729Z,-1.30
2023-01-21T18:07:55.678Z,-1.30
2023-01-21T18:10:24.465Z,-1.40
2023-01-21T18:12:51.648Z,-1.40
2023-01-21T18:15:20.459Z,-1.40
2023-01-21T18:17:48.019Z,-1.40
2023-01-21T18:20:16.223Z,-1.40
2023-01-21T18:22:43.453Z,-1.40
2023-01-21T18:25:14.257Z,-1.40
2023-01-21T18:27:41.858Z,-1.50
2023-01-21T18:30:15.698Z,-1.40
2023-01-21T18:32:43.141Z,-1.50
2023-01-21T18:35:10.632Z,-1.50
2023-01-21T18:37:37.658Z,-1.50
2023-01-21T18:40:05.688Z,-1.50
2023-01-21T18:42:32.929Z,-1.50
2023-01-21T18:44:59.926Z,-1.50
2023-01-21T18:47:26.947Z,-1.50
2023-01-21T18:49:54.425Z,-1.50
2023-01-21T18:52:21.470Z,-1.50
2023-01-21T18:54:48.454Z,-1.50
2023-01-21T18:57:16.849Z,-1.60
2023-01-21T18:59:43.823Z,-1.60
2023-01-21T19:02:14.412Z,-1.60
2023-01-21T19:04:41.465Z,-1.60
2023-01-21T19:07:14.947Z,-1.60
2023-01-21T19:09:45.789Z,-1.60
2023-01-21T19:12:13.351Z,-1.60
2023-01-21T19:14:40.596Z,-1.60
2023-01-21T19:17:11.784Z,-1.60
2023-01-21T19:19:38.888Z,-1.60
2023-01-21T19:22:06.457Z,-1.60
2023-01-21T19:24:33.434Z,-1.60
2023-01-21T19:27:00.411Z,-1.60
2023-01-21T19:29:28.381Z,-1.60
2023-01-21T19:31:55.473Z,-1.60
2023-01-21T19:34:24.940Z,-1.60
2023-01-21T19:36:54.915Z,-1.60
2023-01-21T19:39:23.045Z,-1.60
2023-01-21T19:42:03.420Z,-1.60
2023-01-21T19:44:34.546Z,-1.60
2023-01-21T19:47:01.802Z,-1.70
2023-01-21T19:49:28.854Z,-1.70
2023-01-21T19:51:55.853Z,-1.70
2023-01-21T19:54:22.852Z,-1.60
2023-01-21T19:56:49.818Z,-1.60
2023-01-21T19:59:16.880Z,-1.70
2023-01-21T20:01:44.484Z,-1.70
2023-01-21T20:04:11.490Z,-1.60
2023-01-21T20:06:40.215Z,-1.70
2023-01-21T20:09:07.310Z,-1.70
2023-01-21T20:11:34.976Z,-1.70
2023-01-21T20:14:02.013Z,-1.70
2023-01-21T20:16:31.007Z,-1.70
2023-01-21T20:19:01.898Z,-1.70
2023-01-21T20:21:29.058Z,-1.70
2023-01-21T20:23:56.101Z,-1.70
2023-01-21T20:26:24.538Z,-1.70
2023-01-21T20:28:54.362Z,-1.70
2023-01-21T20:31:21.525Z,-1.70
2023-01-21T20:33:48.750Z,-1.70
2023-01-21T20:36:19.908Z,-1.70
2023-01-21T20:38:46.928Z,-1.60
2023-01-21T20:41:13.943Z,-1.70
2023-01-21T20:43:41.023Z,-1.70
2023-01-21T20:46:11.991Z,-1.70
2023-01-21T20:48:40.396Z,-1.70
2023-01-21T20:51:07.568Z,-1.70
2023-01-21T20:53:34.657Z,-1.70
2023-01-21T20:56:03.073Z,-1.70
2023-01-21T20:58:30.162Z,-1.70
2023-01-21T21:00:57.177Z,-1.70
2023-01-21T21:03:24.597Z,-1.70
2023-01-21T21:05:51.605Z,-1.70
2023-01-21T21:08:19.686Z,-1.70
2023-01-21T21:10:46.811Z,-1.70
2023-01-21T21:13:13.969Z,-1.70
2023-01-21T21:15:41.107Z,-1.60
2023-01-21T21:18:09.893Z,-1.70
2023-01-21T21:20:38.676Z,-1.70
2023-01-21T21:23:06.227Z,-1.70
2023-01-21T21:25:35.935Z,-1.70
2023-01-21T21:28:02.985Z,-1.70
2023-01-21T21:30:30.680Z,-1.70
2023-01-21T21:32:58.259Z,-1.70
2023-01-21T21:35:29.255Z,-1.70
2023-01-21T21:37:57.542Z,-1.70
2023-01-21T21:40:25.803Z,-1.70
2023-01-21T21:43:11.687Z,-1.70
2023-01-21T21:45:40.870Z,-1.70
2023-01-21T21:48:30.244Z,-1.70
2023-01-21T21:50:57.326Z,-1.70
2023-01-21T21:53:24.417Z,-1.70
2023-01-21T21:55:51.451Z,-1.70
2023-01-21T21:58:18.537Z,-1.60
2023-01-21T22:00:45.642Z,-1.70
2023-01-21T22:03:12.727Z,-1.70
2023-01-21T22:05:39.717Z,-1.70
2023-01-21T22:08:08.384Z,-1.70
2023-01-21T22:10:35.492Z,-1.70
2023-01-21T22:13:02.477Z,-1.60
2023-01-21T22:15:29.505Z,-1.60
2023-01-21T22:17:56.506Z,-1.60
2023-01-21T22:20:23.522Z,-1.60
2023-01-21T22:22:50.524Z,-1.60
2023-01-21T22:25:17.895Z,-1.70
2023-01-21T22:27:45.035Z,-1.70
2023-01-21T22:30:12.271Z,-1.70
2023-01-21T22:32:39.312Z,-1.70
2023-01-21T22:35:06.716Z,-1.70
2023-01-21T22:37:33.725Z,-1.70
2023-01-21T22:40:00.842Z,-1.70
2023-01-21T22:42:27.822Z,-1.70
2023-01-21T22:44:54.890Z,-1.70
2023-01-21T22:47:21.887Z,-1.70
2023-01-21T22:49:49.178Z,-1.70
2023-01-21T22:52:16.228Z,-1.70
2023-01-21T22:54:43.237Z,-1.70
2023-01-21T22:57:10.250Z,-1.70
2023-01-21T22:59:39.585Z,-1.70
2023-01-21T23:02:06.636Z,-1.70
2023-01-21T23:04:33.626Z,-1.70
2023-01-21T23:07:00.640Z,-1.70
2023-01-21T23:09:27.956Z,-1.70
2023-01-21T23:11:55.352Z,-1.70
2023-01-21T23:14:22.382Z,-1.70
2023-01-21T23:16:52.328Z,-1.70
2023-01-21T23:19:19.804Z,-1.70
2023-01-21T23:21:46.788Z,-1.70
2023-01-21T23:24:13.887Z,-1.70
2023-01-21T23:26:40.898Z,-1.70
2023-01-21T23:29:08.091Z,-1.70
2023-01-21T23:31:35.291Z,-1.70
2023-01-21T23:34:03.219Z,-1.70
2023-01-21T23:36:30.188Z,-1.70
2023-01-21T23:38:57.159Z,-1.60
2023-01-21T23:41:24.217Z,-1.70
2023-01-21T23:43:51.328Z,-1.70
2023-01-21T23:46:19.722Z,-1.60
2023-01-21T23:48:47.074Z,-1.60
2023-01-21T23:51:14.598Z,-1.70
2023-01-21T23:53:41.722Z,-1.60
2023-01-21T23:56:19.465Z,-1.70
2023-01-21T23:58:46.496Z,-1.60
